createdAt,value
2018-12-09T00:01:27.283Z,8.56
2018-12-09T00:04:34.771Z,8.67
2018-12-09T00:07:43.128Z,8.69
2018-12-09T00:14:07.172Z,8.75
2018-12-09T00:17:24.624Z,8.84
2018-12-09T00:20:42.375Z,8.81
2018-12-09T00:27:06.360Z,8.74
2018-12-09T00:30:14.303Z,8.76
2018-12-09T00:33:21.759Z,8.75
2018-12-09T00:36:29.240Z,8.74
2018-12-09T00:39:37.470Z,8.88
2018-12-09T00:42:45.301Z,8.79
2018-12-09T00:45:52.795Z,8.80
2018-12-09T00:49:10.159Z,8.91
2018-12-09T00:52:27.636Z,8.85
2018-12-09T00:55:35.566Z,8.85
2018-12-09T00:58:43.452Z,8.83
2018-12-09T01:02:05.676Z,8.75
2018-12-09T01:05:13.962Z,8.72
2018-12-09T01:08:22.326Z,8.68
2018-12-09T01:11:29.949Z,8.72
2018-12-09T01:14:37.434Z,8.70
2018-12-09T01:17:45.435Z,8.73
2018-12-09T01:20:53.451Z,8.70
2018-12-09T01:24:00.927Z,8.64
2018-12-09T01:27:09.405Z,8.51
2018-12-09T01:30:17.076Z,8.51
2018-12-09T01:33:35.091Z,8.46
2018-12-09T01:36:52.551Z,8.35
2018-12-09T01:40:11.004Z,8.17
2018-12-09T01:43:18.492Z,8.18
2018-12-09T01:46:25.992Z,8.02
2018-12-09T01:49:44.991Z,7.95
2018-12-09T01:53:19.508Z,7.91
2018-12-09T01:56:26.972Z,7.89
2018-12-09T01:59:34.876Z,7.91
2018-12-09T02:02:43.003Z,7.85
2018-12-09T02:05:50.495Z,7.83
2018-12-09T02:09:09.813Z,7.70
2018-12-09T02:12:17.401Z,7.65
2018-12-09T02:15:25.384Z,7.63
2018-12-09T02:18:43.000Z,7.64
2018-12-09T02:22:00.552Z,7.66
2018-12-09T02:25:08.943Z,7.60
2018-12-09T02:28:16.464Z,7.62
2018-12-09T02:31:34.403Z,7.61
2018-12-09T02:34:52.371Z,7.53
2018-12-09T02:38:09.781Z,7.50
2018-12-09T02:41:27.732Z,7.47
2018-12-09T02:44:35.292Z,7.42
2018-12-09T02:47:42.812Z,7.42
2018-12-09T02:50:50.360Z,7.30
2018-12-09T02:53:58.520Z,7.29
2018-12-09T02:57:06.037Z,7.21
2018-12-09T03:00:24.348Z,7.07
2018-12-09T03:03:32.386Z,7.01
2018-12-09T03:06:39.983Z,7.05
2018-12-09T03:09:47.864Z,7.07
2018-12-09T03:12:55.704Z,6.92
2018-12-09T03:16:03.194Z,6.98
2018-12-09T03:19:11.172Z,6.82
2018-12-09T03:22:18.704Z,6.79
2018-12-09T03:25:26.271Z,6.84
2018-12-09T03:28:43.739Z,6.76
2018-12-09T03:31:52.042Z,6.72
2018-12-09T03:35:00.161Z,6.68
2018-12-09T03:38:07.753Z,6.79
2018-12-09T03:41:15.278Z,6.79
2018-12-09T03:44:22.727Z,6.77
2018-12-09T03:47:30.778Z,6.79
2018-12-09T03:50:38.332Z,6.73
2018-12-09T03:53:45.850Z,6.74
2018-12-09T03:56:53.339Z,6.75
2018-12-09T04:00:10.897Z,6.70
2018-12-09T04:03:28.254Z,6.81
2018-12-09T04:06:45.737Z,6.70
2018-12-09T04:09:53.923Z,6.71
2018-12-09T04:13:01.444Z,6.70
2018-12-09T04:16:08.919Z,6.69
2018-12-09T04:19:26.585Z,6.53
2018-12-09T04:22:34.440Z,6.70
2018-12-09T04:25:42.067Z,6.77
2018-12-09T04:28:49.582Z,6.70
2018-12-09T04:32:07.632Z,6.75
2018-12-09T04:35:15.543Z,6.80
2018-12-09T04:38:23.128Z,6.87
2018-12-09T04:41:40.663Z,6.85
2018-12-09T04:44:48.150Z,6.76
2018-12-09T04:47:55.755Z,6.82
2018-12-09T04:51:03.332Z,6.88
2018-12-09T04:54:10.847Z,6.93
2018-12-09T04:57:28.385Z,6.88
2018-12-09T05:00:55.898Z,6.91
2018-12-09T05:04:03.451Z,6.93
2018-12-09T05:07:10.903Z,6.96
2018-12-09T05:10:18.526Z,6.99
2018-12-09T05:13:36.076Z,6.91
2018-12-09T05:16:53.608Z,6.97
2018-12-09T05:20:11.581Z,6.99
2018-12-09T05:23:19.055Z,7.04
2018-12-09T05:26:26.643Z,7.03
2018-12-09T05:29:34.244Z,7.07
2018-12-09T05:32:51.775Z,7.08
2018-12-09T05:36:00.230Z,7.05
2018-12-09T05:39:08.143Z,7.06
2018-12-09T05:42:16.087Z,7.01
2018-12-09T05:45:23.615Z,7.06
2018-12-09T05:48:41.188Z,7.05
2018-12-09T05:51:58.747Z,7.00
2018-12-09T05:55:16.216Z,7.00
2018-12-09T05:58:30.408Z,6.98
2018-12-09T06:01:37.976Z,7.06
2018-12-09T06:04:45.560Z,7.09
2018-12-09T06:07:53.064Z,7.05
2018-12-09T06:11:10.457Z,7.00
2018-12-09T06:14:28.428Z,7.04
2018-12-09T06:17:45.832Z,7.10
2018-12-09T06:21:03.384Z,6.97
2018-12-09T06:24:11.495Z,7.01
2018-12-09T06:27:18.977Z,7.05
2018-12-09T06:30:26.588Z,7.14
2018-12-09T06:33:44.021Z,7.13
2018-12-09T06:37:01.433Z,7.15
2018-12-09T06:40:09.876Z,7.24
2018-12-09T06:43:17.340Z,7.24
2018-12-09T06:46:34.899Z,7.27
2018-12-09T06:49:52.427Z,7.26
2018-12-09T06:53:09.848Z,7.31
2018-12-09T06:56:27.290Z,7.40
2018-12-09T06:59:45.227Z,7.42
2018-12-09T07:02:52.723Z,7.42
2018-12-09T07:06:00.219Z,7.38
2018-12-09T07:09:18.368Z,7.41
2018-12-09T07:12:25.845Z,7.44
2018-12-09T07:15:33.364Z,7.41
2018-12-09T07:18:40.857Z,7.53
2018-12-09T07:21:48.390Z,7.51
2018-12-09T07:24:55.964Z,7.56
2018-12-09T07:28:03.436Z,7.50
2018-12-09T07:31:11.066Z,7.49
2018-12-09T07:34:18.967Z,7.44
2018-12-09T07:37:36.475Z,7.53
2018-12-09T07:40:54.262Z,7.58
2018-12-09T07:44:02.140Z,7.58
2018-12-09T07:47:09.719Z,7.60
2018-12-09T07:50:17.331Z,7.59
2018-12-09T07:53:25.460Z,7.60
2018-12-09T07:56:33.040Z,7.61
2018-12-09T07:59:50.679Z,7.58
2018-12-09T08:03:08.192Z,7.60
2018-12-09T08:06:27.612Z,7.63
2018-12-09T08:09:45.219Z,7.67
2018-12-09T08:12:52.696Z,7.69
2018-12-09T08:16:00.218Z,7.71
2018-12-09T08:19:07.695Z,7.69
2018-12-09T08:22:15.724Z,7.70
2018-12-09T08:25:23.216Z,7.71
2018-12-09T08:28:30.691Z,7.72
2018-12-09T08:31:38.316Z,7.72
2018-12-09T08:34:45.842Z,7.82
2018-12-09T08:38:03.315Z,7.87
2018-12-09T08:41:20.975Z,7.89
2018-12-09T08:44:28.452Z,7.97
2018-12-09T08:47:36.067Z,8.00
2018-12-09T08:50:43.591Z,8.08
2018-12-09T08:53:51.076Z,8.16
2018-12-09T08:57:09.127Z,8.07
2018-12-09T09:00:16.712Z,8.10
2018-12-09T09:03:24.153Z,8.16
2018-12-09T09:06:31.703Z,8.17
2018-12-09T09:09:39.275Z,8.13
2018-12-09T09:12:46.840Z,8.11
2018-12-09T09:15:54.288Z,8.10
2018-12-09T09:19:01.727Z,8.08
2018-12-09T09:22:09.732Z,7.94
2018-12-09T09:25:17.280Z,7.85
2018-12-09T09:28:24.751Z,7.79
2018-12-09T09:31:32.404Z,7.70
2018-12-09T09:34:39.912Z,7.75
2018-12-09T09:37:57.395Z,7.83
2018-12-09T09:41:14.961Z,7.96
2018-12-09T09:44:32.376Z,8.13
2018-12-09T09:47:50.232Z,8.31
2018-12-09T09:50:57.744Z,8.37
2018-12-09T09:54:06.480Z,8.50
2018-12-09T10:00:30.072Z,8.66
2018-12-09T10:03:38.056Z,8.69
2018-12-09T10:06:45.583Z,8.79
2018-12-09T10:09:54.153Z,8.74
2018-12-09T10:13:01.700Z,8.89
2018-12-09T10:16:19.215Z,9.08
2018-12-09T10:19:36.836Z,9.04
2018-12-09T10:22:53.892Z,8.96
2018-12-09T10:26:11.356Z,8.91
2018-12-09T10:29:28.849Z,8.93
2018-12-09T10:32:46.297Z,8.84
2018-12-09T10:36:03.735Z,8.83
2018-12-09T10:39:21.728Z,8.74
2018-12-09T10:42:29.207Z,8.73
2018-12-09T10:45:36.662Z,8.67
2018-12-09T10:48:44.207Z,8.58
2018-12-09T10:51:51.840Z,8.53
2018-12-09T10:55:09.843Z,8.57
2018-12-09T10:58:17.396Z,8.50
2018-12-09T11:04:55.786Z,8.69
2018-12-09T11:08:13.261Z,8.96
2018-12-09T11:11:30.797Z,9.05
2018-12-09T11:14:48.196Z,8.96
2018-12-09T11:18:06.243Z,8.87
2018-12-09T11:21:13.757Z,8.86
2018-12-09T11:24:21.748Z,8.86
2018-12-09T11:27:39.108Z,8.74
2018-12-09T11:30:56.709Z,8.48
2018-12-09T11:34:14.371Z,8.38
2018-12-09T11:37:31.844Z,8.32
2018-12-09T11:40:51.361Z,8.20
2018-12-09T11:44:08.748Z,8.24
2018-12-09T11:47:26.819Z,8.48
2018-12-09T11:50:34.356Z,8.67
2018-12-09T11:53:41.912Z,8.61
2018-12-09T11:56:49.392Z,8.78
2018-12-09T12:00:13.068Z,9.11
2018-12-09T12:03:20.532Z,9.16
2018-12-09T12:06:38.043Z,9.04
2018-12-09T12:09:55.544Z,8.86
2018-12-09T12:13:12.832Z,8.83
2018-12-09T12:16:30.511Z,8.75
2018-12-09T12:19:38.217Z,8.62
2018-12-09T12:22:45.804Z,8.66
2018-12-09T12:25:54.346Z,8.59
2018-12-09T12:29:01.832Z,8.58
2018-12-09T12:32:09.416Z,8.54
2018-12-09T12:35:30.021Z,8.59
2018-12-09T12:38:47.439Z,8.52
2018-12-09T12:42:05.004Z,8.47
2018-12-09T12:45:12.787Z,8.53
2018-12-09T12:48:20.265Z,8.48
2018-12-09T12:51:28.200Z,8.33
2018-12-09T12:54:46.009Z,8.30
2018-12-09T12:57:53.527Z,8.37
2018-12-09T13:01:01.235Z,8.48
2018-12-09T13:04:08.808Z,8.49
2018-12-09T13:07:26.355Z,8.54
2018-12-09T13:10:45.831Z,8.48
2018-12-09T13:14:03.667Z,8.43
2018-12-09T13:17:11.280Z,8.40
2018-12-09T13:20:18.900Z,8.48
2018-12-09T13:23:26.856Z,8.42
2018-12-09T13:26:34.484Z,8.47
2018-12-09T13:29:42.468Z,8.54
2018-12-09T13:32:59.948Z,8.57
2018-12-09T13:36:17.636Z,8.47
2018-12-09T13:39:25.157Z,8.51
2018-12-09T13:42:32.656Z,8.54
2018-12-09T13:45:40.652Z,8.60
2018-12-09T13:48:58.122Z,8.57
2018-12-09T13:52:06.104Z,8.54
2018-12-09T13:55:13.778Z,8.50
2018-12-09T13:58:21.299Z,8.41
2018-12-09T14:01:38.724Z,8.48
2018-12-09T14:04:56.272Z,8.53
2018-12-09T14:08:14.523Z,8.44
2018-12-09T14:11:22.556Z,8.41
2018-12-09T14:14:39.946Z,8.39
2018-12-09T14:17:47.748Z,8.31
2018-12-09T14:20:55.557Z,8.36
2018-12-09T14:24:13.396Z,8.41
2018-12-09T14:27:30.923Z,8.38
2018-12-09T14:30:48.285Z,8.37
2018-12-09T14:34:05.818Z,8.33
2018-12-09T14:40:56.389Z,8.27
2018-12-09T14:44:13.843Z,8.30
2018-12-09T14:47:21.644Z,8.23
2018-12-09T14:50:29.122Z,8.27
2018-12-09T14:53:36.635Z,8.26
2018-12-09T14:56:54.564Z,8.34
2018-12-09T15:00:12.731Z,8.16
2018-12-09T15:03:18.084Z,8.21
2018-12-09T15:06:25.726Z,8.23
2018-12-09T15:09:34.593Z,8.04
2018-12-09T15:12:42.456Z,7.99
2018-12-09T15:15:59.816Z,8.03
2018-12-09T15:19:17.409Z,7.95
2018-12-09T15:22:24.976Z,7.97
2018-12-09T15:25:33.801Z,7.83
2018-12-09T15:28:41.297Z,7.75
2018-12-09T15:31:48.756Z,7.76
2018-12-09T15:34:56.559Z,7.72
2018-12-09T15:38:13.952Z,7.69
2018-12-09T15:41:31.512Z,7.72
2018-12-09T15:44:49.009Z,7.77
2018-12-09T15:48:06.495Z,7.84
2018-12-09T15:51:24.567Z,7.85
2018-12-09T15:54:32.712Z,7.94
2018-12-09T15:57:50.203Z,7.94
2018-12-09T16:01:07.711Z,8.00
2018-12-09T16:04:25.188Z,8.16
2018-12-09T16:07:42.604Z,8.11
2018-12-09T16:11:00.140Z,7.99
2018-12-09T16:14:18.317Z,8.00
2018-12-09T16:17:26.467Z,8.03
2018-12-09T16:20:33.983Z,8.01
2018-12-09T16:23:41.489Z,7.95
2018-12-09T16:26:48.954Z,7.98
2018-12-09T16:29:56.430Z,7.91
2018-12-09T16:33:04.285Z,8.06
2018-12-09T16:36:12.171Z,8.09
2018-12-09T16:39:19.693Z,8.10
2018-12-09T16:42:37.395Z,8.08
2018-12-09T16:45:55.504Z,8.03
2018-12-09T16:49:03.063Z,8.00
2018-12-09T16:52:10.548Z,7.91
2018-12-09T16:55:18.055Z,7.94
2018-12-09T16:58:35.704Z,7.89
2018-12-09T17:01:53.259Z,7.88
2018-12-09T17:05:10.752Z,7.79
2018-12-09T17:08:18.461Z,7.79
2018-12-09T17:11:26.056Z,7.79
2018-12-09T17:14:33.550Z,7.86
2018-12-09T17:17:41.024Z,7.91
2018-12-09T17:20:58.616Z,7.93
2018-12-09T17:24:16.047Z,7.88
2018-12-09T17:27:34.138Z,7.78
2018-12-09T17:30:42.267Z,7.69
2018-12-09T17:33:59.836Z,7.66
2018-12-09T17:37:07.377Z,7.70
2018-12-09T17:40:15.019Z,7.59
2018-12-09T17:43:22.492Z,7.57
2018-12-09T17:46:42.009Z,7.57
2018-12-09T17:49:59.417Z,7.56
2018-12-09T17:53:16.866Z,7.48
2018-12-09T17:56:34.449Z,7.50
2018-12-09T17:59:51.897Z,7.56
2018-12-09T18:03:09.809Z,7.59
2018-12-09T18:06:27.377Z,7.41
2018-12-09T18:09:44.816Z,7.51
2018-12-09T18:13:02.368Z,7.45
2018-12-09T18:16:09.927Z,7.49
2018-12-09T18:19:17.430Z,7.43
2018-12-09T18:22:24.961Z,7.40
2018-12-09T18:25:32.488Z,7.42
2018-12-09T18:28:50.094Z,7.43
2018-12-09T18:32:09.136Z,7.45
2018-12-09T18:35:26.756Z,7.51
2018-12-09T18:38:44.605Z,7.48
2018-12-09T18:41:52.296Z,7.36
2018-12-09T18:44:59.773Z,7.45
2018-12-09T18:48:07.300Z,7.48
2018-12-09T18:51:24.819Z,7.50
2018-12-09T18:54:42.223Z,7.48
2018-12-09T18:57:59.721Z,7.48
2018-12-09T19:01:17.644Z,7.45
2018-12-09T19:04:26.228Z,7.49
2018-12-09T19:07:34.256Z,7.53
2018-12-09T19:10:42.185Z,7.54
2018-12-09T19:13:49.800Z,7.47
2018-12-09T19:16:57.472Z,7.48
2018-12-09T19:20:06.221Z,7.40
2018-12-09T19:23:14.234Z,7.41
2018-12-09T19:26:21.775Z,7.37
2018-12-09T19:29:29.409Z,7.32
2018-12-09T19:32:36.987Z,7.25
2018-12-09T19:35:54.565Z,7.21
2018-12-09T19:39:12.086Z,7.20
2018-12-09T19:42:19.968Z,7.20
2018-12-09T19:45:27.544Z,7.14
2018-12-09T19:48:35.169Z,7.01
2018-12-09T19:51:52.667Z,7.03
2018-12-09T19:55:10.118Z,7.09
2018-12-09T19:58:27.540Z,7.07
2018-12-09T20:01:35.545Z,7.06
2018-12-09T20:04:43.064Z,7.11
2018-12-09T20:07:50.679Z,7.09
2018-12-09T20:11:08.280Z,7.12
2018-12-09T20:14:25.720Z,7.09
2018-12-09T20:17:43.192Z,7.06
2018-12-09T20:21:00.584Z,7.04
2018-12-09T20:24:18.016Z,7.11
2018-12-09T20:27:35.932Z,7.14
2018-12-09T20:30:43.443Z,7.09
2018-12-09T20:33:51.664Z,7.09
2018-12-09T20:36:59.128Z,7.11
2018-12-09T20:40:06.562Z,7.08
2018-12-09T20:43:14.240Z,7.03
2018-12-09T20:46:21.764Z,6.98
2018-12-09T20:49:39.284Z,6.86
2018-12-09T20:52:56.695Z,6.92
2018-12-09T20:56:14.147Z,6.99
2018-12-09T20:59:31.671Z,7.03
2018-12-09T21:02:49.083Z,7.11
2018-12-09T21:06:06.489Z,7.07
2018-12-09T21:09:24.004Z,7.04
2018-12-09T21:12:41.361Z,7.04
2018-12-09T21:15:58.967Z,7.07
2018-12-09T21:19:06.981Z,7.07
2018-12-09T21:22:14.555Z,7.13
2018-12-09T21:25:22.023Z,7.11
2018-12-09T21:28:39.948Z,7.23
2018-12-09T21:31:47.478Z,7.22
2018-12-09T21:34:55.513Z,7.27
2018-12-09T21:38:13.021Z,7.22
2018-12-09T21:41:30.648Z,7.21
2018-12-09T21:44:48.059Z,7.15
2018-12-09T21:48:05.538Z,7.18
2018-12-09T21:51:23.074Z,7.18
2018-12-09T21:54:40.449Z,7.20
2018-12-09T21:57:58.366Z,7.11
2018-12-09T22:01:15.880Z,7.05
2018-12-09T22:04:33.284Z,7.04
2018-12-09T22:07:41.217Z,7.04
2018-12-09T22:10:48.713Z,6.97
2018-12-09T22:13:56.668Z,6.93
2018-12-09T22:17:04.186Z,6.92
2018-12-09T22:20:11.623Z,6.88
2018-12-09T22:23:19.180Z,6.82
2018-12-09T22:26:26.675Z,6.78
2018-12-09T22:29:34.137Z,6.79
2018-12-09T22:32:51.547Z,6.76
2018-12-09T22:36:11.061Z,6.80
2018-12-09T22:39:28.505Z,6.76
2018-12-09T22:42:45.933Z,6.82
2018-12-09T22:46:03.376Z,6.79
2018-12-09T22:49:20.891Z,6.81
2018-12-09T22:52:38.319Z,6.75
2018-12-09T22:55:55.756Z,6.75
2018-12-09T22:59:13.699Z,6.70
2018-12-09T23:02:26.400Z,6.70
2018-12-09T23:05:34.315Z,6.68
2018-12-09T23:08:41.791Z,6.70
2018-12-09T23:11:49.256Z,6.70
2018-12-09T23:14:57.013Z,6.73
2018-12-09T23:18:04.491Z,6.67
2018-12-09T23:21:21.879Z,6.61
2018-12-09T23:24:39.771Z,6.58
2018-12-09T23:27:47.263Z,6.57
2018-12-09T23:34:10.672Z,6.72
2018-12-09T23:37:28.044Z,6.68
2018-12-09T23:40:45.496Z,6.74
2018-12-09T23:44:03.236Z,6.72
2018-12-09T23:47:10.706Z,6.69
2018-12-09T23:50:18.257Z,6.64
2018-12-09T23:53:25.856Z,6.48
2018-12-09T23:56:33.324Z,6.39
2018-12-09T23:59:50.813Z,6.37
